createdAt,value
2022-12-17T00:05:17.619Z,-4.40
2022-12-17T00:11:51.389Z,-4.50
2022-12-17T00:18:12.282Z,-4.50
2022-12-17T00:24:32.633Z,-4.70
2022-12-17T00:30:53.135Z,-4.70
2022-12-17T00:37:14.166Z,-4.80
2022-12-17T00:43:34.589Z,-4.90
2022-12-17T00:49:56.164Z,-4.90
2022-12-17T00:56:16.315Z,-5.00
2022-12-17T01:02:36.834Z,-5.20
2022-12-17T01:08:57.147Z,-5.20
2022-12-17T01:15:17.285Z,-5.30
2022-12-17T01:21:39.275Z,-5.30
2022-12-17T01:27:59.594Z,-5.30
2022-12-17T01:34:20.299Z,-5.40
2022-12-17T01:40:40.565Z,-5.50
2022-12-17T01:47:09.820Z,-5.50
2022-12-17T01:53:30.943Z,-5.50
2022-12-17T02:00:08.829Z,-5.60
2022-12-17T02:06:46.021Z,-5.90
2022-12-17T02:13:10.562Z,-5.70
2022-12-17T02:19:53.449Z,-5.60
2022-12-17T02:26:15.236Z,-5.70
2022-12-17T02:32:37.302Z,-5.60
2022-12-17T02:38:57.862Z,-5.70
2022-12-17T02:45:19.159Z,-5.60
2022-12-17T02:51:40.760Z,-5.70
2022-12-17T02:58:01.467Z,-5.60
2022-12-17T03:04:21.643Z,-5.70
2022-12-17T03:10:41.908Z,-5.70
2022-12-17T03:17:02.455Z,-5.70
2022-12-17T03:23:28.666Z,-5.70
2022-12-17T03:29:49.020Z,-5.80
2022-12-17T03:36:12.430Z,-5.90
2022-12-17T03:42:32.664Z,-5.90
2022-12-17T03:48:53.061Z,-6.00
2022-12-17T03:55:13.355Z,-6.00
2022-12-17T04:01:33.851Z,-6.00
2022-12-17T04:07:54.102Z,-6.00
2022-12-17T04:14:14.533Z,-6.00
2022-12-17T04:20:34.680Z,-6.00
2022-12-17T04:26:55.021Z,-5.90
2022-12-17T04:33:16.947Z,-5.80
2022-12-17T04:39:37.441Z,-5.90
2022-12-17T04:45:57.718Z,-6.00
2022-12-17T04:52:17.992Z,-6.20
2022-12-17T04:58:38.404Z,-6.20
2022-12-17T05:04:58.635Z,-6.10
2022-12-17T05:11:25.498Z,-6.20
2022-12-17T05:17:46.060Z,-6.10
2022-12-17T05:24:06.605Z,-6.10
2022-12-17T05:30:27.191Z,-6.10
2022-12-17T05:36:47.899Z,-6.00
2022-12-17T05:43:16.308Z,-5.80
2022-12-17T05:49:36.902Z,-5.90
2022-12-17T05:55:57.130Z,-5.90
2022-12-17T06:02:17.461Z,-5.90
2022-12-17T06:08:38.052Z,-6.00
2022-12-17T06:14:58.138Z,-6.10
2022-12-17T06:21:18.469Z,-6.10
2022-12-17T06:27:38.975Z,-6.10
2022-12-17T06:33:59.775Z,-5.90
2022-12-17T06:40:20.258Z,-5.90
2022-12-17T06:46:40.880Z,-6.00
2022-12-17T06:53:01.341Z,-6.20
2022-12-17T06:59:21.903Z,-6.20
2022-12-17T07:05:42.137Z,-6.10
2022-12-17T07:12:02.978Z,-6.20
2022-12-17T07:18:23.328Z,-6.10
2022-12-17T07:24:43.489Z,-6.20
2022-12-17T07:31:03.710Z,-6.10
2022-12-17T07:37:24.234Z,-6.20
2022-12-17T07:43:48.244Z,-6.10
2022-12-17T07:50:12.926Z,-6.20
2022-12-17T07:56:33.136Z,-6.10
2022-12-17T08:02:53.480Z,-6.00
2022-12-17T08:09:13.957Z,-6.00
2022-12-17T08:15:34.239Z,-6.10
2022-12-17T08:21:54.457Z,-6.10
2022-12-17T08:28:41.606Z,-6.20
2022-12-17T08:34:57.245Z,-6.30
2022-12-17T08:41:19.490Z,-6.20
2022-12-17T08:47:40.612Z,-6.10
2022-12-17T08:54:00.847Z,-5.90
2022-12-17T09:00:21.220Z,-5.80
2022-12-17T09:06:41.755Z,-5.60
2022-12-17T09:13:04.924Z,-5.60
2022-12-17T09:19:27.937Z,-5.50
2022-12-17T09:25:48.129Z,-5.60
2022-12-17T09:32:08.351Z,-5.50
2022-12-17T09:38:34.953Z,-5.50
2022-12-17T09:45:06.146Z,-5.50
2022-12-17T09:51:43.434Z,-5.50
2022-12-17T09:58:04.413Z,-5.50
2022-12-17T10:04:34.353Z,-5.40
2022-12-17T10:10:58.675Z,-5.30
2022-12-17T10:17:19.203Z,-5.00
2022-12-17T10:23:47.612Z,-4.90
2022-12-17T10:30:07.630Z,-4.80
2022-12-17T10:36:42.605Z,-4.50
2022-12-17T10:43:06.110Z,-4.40
2022-12-17T10:49:32.661Z,-4.40
2022-12-17T10:55:54.250Z,-4.30
2022-12-17T11:02:17.450Z,-4.00
2022-12-17T11:08:38.957Z,-3.90
2022-12-17T11:15:08.825Z,-3.70
2022-12-17T11:21:49.971Z,-3.50
2022-12-17T11:28:52.144Z,-3.30
2022-12-17T11:35:36.298Z,-3.30
2022-12-17T11:42:11.005Z,-3.20
2022-12-17T11:48:44.396Z,-3.00
2022-12-17T11:55:13.162Z,-3.20
2022-12-17T12:01:54.060Z,-2.90
2022-12-17T12:08:29.592Z,-3.00
2022-12-17T12:15:04.845Z,-2.90
2022-12-17T12:21:58.179Z,-2.70
2022-12-17T12:28:29.130Z,-2.80
2022-12-17T12:34:55.048Z,-2.80
2022-12-17T12:41:30.383Z,-2.90
2022-12-17T12:48:09.370Z,-2.90
2022-12-17T12:55:04.703Z,-2.70
2022-12-17T13:01:25.193Z,-2.80
2022-12-17T13:07:30.079Z,-2.80
2022-12-17T13:13:36.671Z,-2.80
2022-12-17T13:19:44.328Z,-2.70
2022-12-17T13:25:46.394Z,-2.90
2022-12-17T13:32:06.268Z,-3.00
2022-12-17T13:38:50.074Z,-3.20
2022-12-17T13:44:55.821Z,-3.40
2022-12-17T13:51:05.655Z,-3.60
2022-12-17T13:57:15.142Z,-3.70
2022-12-17T14:03:32.335Z,-3.80
2022-12-17T14:09:44.387Z,-3.70
2022-12-17T14:15:49.764Z,-4.00
2022-12-17T14:21:51.954Z,-4.00
2022-12-17T14:28:02.417Z,-4.10
2022-12-17T14:34:11.152Z,-4.20
2022-12-17T14:40:15.710Z,-4.40
2022-12-17T14:46:20.382Z,-4.50
2022-12-17T14:52:33.061Z,-4.50
2022-12-17T14:58:45.937Z,-4.60
2022-12-17T15:04:47.708Z,-4.70
2022-12-17T15:10:49.978Z,-4.90
2022-12-17T15:16:51.748Z,-5.00
2022-12-17T15:22:53.486Z,-5.00
2022-12-17T15:28:55.259Z,-5.00
2022-12-17T15:34:57.007Z,-5.10
2022-12-17T15:41:23.378Z,-5.20
2022-12-17T15:47:25.145Z,-5.30
2022-12-17T15:53:26.949Z,-5.30
2022-12-17T15:59:28.734Z,-5.50
2022-12-17T16:05:30.524Z,-5.50
2022-12-17T16:11:32.284Z,-5.40
2022-12-17T16:17:34.530Z,-5.60
2022-12-17T16:23:36.398Z,-5.70
2022-12-17T16:29:38.236Z,-5.60
2022-12-17T16:35:41.026Z,-5.60
2022-12-17T16:41:43.515Z,-5.80
2022-12-17T16:47:45.222Z,-5.80
2022-12-17T16:53:46.958Z,-5.80
2022-12-17T16:59:48.703Z,-5.80
2022-12-17T17:05:50.571Z,-5.70
2022-12-17T17:11:55.630Z,-5.60
2022-12-17T17:17:57.535Z,-5.50
2022-12-17T17:24:20.967Z,-5.30
2022-12-17T17:30:23.270Z,-5.30
2022-12-17T17:36:27.905Z,-5.20
2022-12-17T17:42:29.522Z,-5.30
2022-12-17T17:48:33.419Z,-5.50
2022-12-17T17:54:35.248Z,-5.60
2022-12-17T18:00:37.715Z,-5.70
2022-12-17T18:06:57.546Z,-5.80
2022-12-17T18:13:21.594Z,-5.90
2022-12-17T18:19:23.284Z,-6.00
2022-12-17T18:25:25.076Z,-5.90
2022-12-17T18:31:27.017Z,-5.90
2022-12-17T18:37:28.768Z,-6.00
2022-12-17T18:43:30.501Z,-6.10
2022-12-17T18:49:32.242Z,-6.20
2022-12-17T18:55:35.787Z,-6.20
2022-12-17T19:01:37.763Z,-6.30
2022-12-17T19:07:39.663Z,-6.30
2022-12-17T19:13:41.481Z,-6.30
2022-12-17T19:19:43.218Z,-6.30
2022-12-17T19:25:44.873Z,-6.40
2022-12-17T19:31:46.819Z,-6.40
2022-12-17T19:37:49.996Z,-6.30
2022-12-17T19:43:59.639Z,-6.30
2022-12-17T19:50:01.384Z,-6.40
2022-12-17T19:56:23.340Z,-6.40
2022-12-17T20:02:30.957Z,-6.50
2022-12-17T20:08:35.042Z,-6.40
2022-12-17T20:14:37.746Z,-6.40
2022-12-17T20:20:39.444Z,-6.50
2022-12-17T20:26:41.788Z,-6.50
2022-12-17T20:32:43.470Z,-6.60
2022-12-17T20:38:45.531Z,-6.70
2022-12-17T20:44:53.070Z,-6.80
2022-12-17T20:50:55.208Z,-6.80
2022-12-17T20:56:56.952Z,-6.80
2022-12-17T21:02:59.094Z,-6.10
2022-12-17T21:09:01.627Z,-5.50
2022-12-17T21:15:03.510Z,-5.30
2022-12-17T21:21:08.567Z,-5.10
2022-12-17T21:27:14.690Z,-5.20
2022-12-17T21:33:16.765Z,-5.00
2022-12-17T21:39:19.977Z,-5.00
2022-12-17T21:45:21.702Z,-4.90
2022-12-17T21:51:24.317Z,-4.70
2022-12-17T21:57:26.337Z,-4.50
2022-12-17T22:03:28.047Z,-4.50
2022-12-17T22:09:41.937Z,-4.50
2022-12-17T22:15:55.502Z,-4.60
2022-12-17T22:21:58.103Z,-4.50
2022-12-17T22:27:59.928Z,-4.40
2022-12-17T22:35:10.223Z,-4.40
2022-12-17T22:44:29.591Z,-4.50
2022-12-17T22:46:46.029Z,-4.40
2022-12-17T22:52:47.892Z,-4.40
2022-12-17T22:58:50.218Z,-4.40
2022-12-17T23:04:51.991Z,-4.30
2022-12-17T23:10:53.748Z,-4.20
2022-12-17T23:16:55.459Z,-4.20
2022-12-17T23:22:57.331Z,-4.40
2022-12-17T23:29:04.929Z,-5.00
2022-12-17T23:35:08.088Z,-5.10
2022-12-17T23:41:18.992Z,-4.70
2022-12-17T23:47:20.702Z,-4.60
2022-12-17T23:53:22.399Z,-4.50
2022-12-17T23:59:24.199Z,-4.60
